sensor_id;sensor_type;location;lat;lon;timestamp;temperature;humidity
3308;DHT22;1666;48.898;9.182;2024-02-26T00:00:48;8.00;1.00
3308;DHT22;1666;48.898;9.182;2024-02-26T00:03:18;8.00;1.00
3308;DHT22;1666;48.898;9.182;2024-02-26T00:05:50;7.90;1.00
3308;DHT22;1666;48.898;9.182;2024-02-26T00:08:20;7.90;1.00
3308;DHT22;1666;48.898;9.182;2024-02-26T00:10:51;7.90;1.00
3308;DHT22;1666;48.898;9.182;2024-02-26T00:13:20;7.80;1.00
3308;DHT22;1666;48.898;9.182;2024-02-26T00:15:50;7.80;1.00
3308;DHT22;1666;48.898;9.182;2024-02-26T00:18:20;7.80;1.00
3308;DHT22;1666;48.898;9.182;2024-02-26T00:20:53;7.80;1.00
3308;DHT22;1666;48.898;9.182;2024-02-26T00:23:23;7.80;1.00
3308;DHT22;1666;48.898;9.182;2024-02-26T00:25:54;7.80;1.00
3308;DHT22;1666;48.898;9.182;2024-02-26T00:28:24;7.80;1.00
3308;DHT22;1666;48.898;9.182;2024-02-26T00:30:56;7.90;1.00
3308;DHT22;1666;48.898;9.182;2024-02-26T00:33:26;7.90;1.00
3308;DHT22;1666;48.898;9.182;2024-02-26T00:35:59;7.90;1.00
3308;DHT22;1666;48.898;9.182;2024-02-26T00:38:29;7.90;1.00
3308;DHT22;1666;48.898;9.182;2024-02-26T00:41:00;7.90;1.00
3308;DHT22;1666;48.898;9.182;2024-02-26T00:43:30;7.80;1.00
3308;DHT22;1666;48.898;9.182;2024-02-26T00:46:00;7.70;1.00
3308;DHT22;1666;48.898;9.182;2024-02-26T00:48:30;7.70;1.00
3308;DHT22;1666;48.898;9.182;2024-02-26T00:51:03;7.70;1.00
3308;DHT22;1666;48.898;9.182;2024-02-26T00:53:35;7.70;1.00
3308;DHT22;1666;48.898;9.182;2024-02-26T00:56:05;7.70;1.00
3308;DHT22;1666;48.898;9.182;2024-02-26T00:58:35;7.70;1.00
3308;DHT22;1666;48.898;9.182;2024-02-26T01:01:05;7.60;1.00
3308;DHT22;1666;48.898;9.182;2024-02-26T01:03:36;7.70;1.00
3308;DHT22;1666;48.898;9.182;2024-02-26T01:06:09;7.60;1.00
3308;DHT22;1666;48.898;9.182;2024-02-26T01:08:39;7.60;1.00
3308;DHT22;1666;48.898;9.182;2024-02-26T01:11:09;7.60;1.00
3308;DHT22;1666;48.898;9.182;2024-02-26T01:13:39;7.50;1.00
3308;DHT22;1666;48.898;9.182;2024-02-26T01:16:09;7.60;1.00
3308;DHT22;1666;48.898;9.182;2024-02-26T01:18:40;7.50;1.00
3308;DHT22;1666;48.898;9.182;2024-02-26T01:21:13;7.60;1.00
3308;DHT22;1666;48.898;9.182;2024-02-26T01:23:43;7.70;1.00
3308;DHT22;1666;48.898;9.182;2024-02-26T01:26:13;7.60;1.00
3308;DHT22;1666;48.898;9.182;2024-02-26T01:28:43;7.60;1.00
3308;DHT22;1666;48.898;9.182;2024-02-26T01:31:13;7.70;1.00
3308;DHT22;1666;48.898;9.182;2024-02-26T01:33:43;7.70;1.00
3308;DHT22;1666;48.898;9.182;2024-02-26T01:36:16;7.60;1.00
3308;DHT22;1666;48.898;9.182;2024-02-26T01:38:46;7.50;1.00
3308;DHT22;1666;48.898;9.182;2024-02-26T01:41:16;7.60;1.00
3308;DHT22;1666;48.898;9.182;2024-02-26T01:43:46;7.50;1.00
3308;DHT22;1666;48.898;9.182;2024-02-26T01:46:17;7.50;1.00
3308;DHT22;1666;48.898;9.182;2024-02-26T01:48:48;7.50;1.00
3308;DHT22;1666;48.898;9.182;2024-02-26T01:51:22;7.40;1.00
3308;DHT22;1666;48.898;9.182;2024-02-26T01:53:52;7.40;1.00
3308;DHT22;1666;48.898;9.182;2024-02-26T01:56:22;7.40;1.00
3308;DHT22;1666;48.898;9.182;2024-02-26T01:58:58;7.50;1.00
3308;DHT22;1666;48.898;9.182;2024-02-26T02:01:30;7.60;1.00
3308;DHT22;1666;48.898;9.182;2024-02-26T02:04:00;7.50;1.00
3308;DHT22;1666;48.898;9.182;2024-02-26T02:06:33;7.50;1.00
3308;DHT22;1666;48.898;9.182;2024-02-26T02:09:04;7.50;1.00
3308;DHT22;1666;48.898;9.182;2024-02-26T02:11:34;7.50;1.00
3308;DHT22;1666;48.898;9.182;2024-02-26T02:14:05;7.50;1.00
3308;DHT22;1666;48.898;9.182;2024-02-26T02:16:35;7.50;1.00
3308;DHT22;1666;48.898;9.182;2024-02-26T02:19:06;7.50;1.00
3308;DHT22;1666;48.898;9.182;2024-02-26T02:21:38;7.60;1.00
3308;DHT22;1666;48.898;9.182;2024-02-26T02:24:08;7.50;1.00
3308;DHT22;1666;48.898;9.182;2024-02-26T02:26:38;7.50;1.00
3308;DHT22;1666;48.898;9.182;2024-02-26T02:29:09;7.50;1.00
3308;DHT22;1666;48.898;9.182;2024-02-26T02:31:39;7.50;1.00
3308;DHT22;1666;48.898;9.182;2024-02-26T02:34:10;7.40;1.00
3308;DHT22;1666;48.898;9.182;2024-02-26T02:36:52;7.50;1.00
3308;DHT22;1666;48.898;9.182;2024-02-26T02:39:22;7.50;1.00
3308;DHT22;1666;48.898;9.182;2024-02-26T02:41:52;7.50;1.00
3308;DHT22;1666;48.898;9.182;2024-02-26T02:44:22;7.50;1.00
3308;DHT22;1666;48.898;9.182;2024-02-26T02:46:52;7.60;1.00
3308;DHT22;1666;48.898;9.182;2024-02-26T02:49:22;7.60;1.00
3308;DHT22;1666;48.898;9.182;2024-02-26T02:51:55;7.50;1.00
3308;DHT22;1666;48.898;9.182;2024-02-26T02:54:25;7.60;1.00
3308;DHT22;1666;48.898;9.182;2024-02-26T02:56:55;7.50;1.00
3308;DHT22;1666;48.898;9.182;2024-02-26T02:59:25;7.50;1.00
3308;DHT22;1666;48.898;9.182;2024-02-26T03:01:55;7.50;1.00
3308;DHT22;1666;48.898;9.182;2024-02-26T03:04:25;7.50;1.00
3308;DHT22;1666;48.898;9.182;2024-02-26T03:06:59;7.60;1.00
3308;DHT22;1666;48.898;9.182;2024-02-26T03:09:29;7.70;1.00
3308;DHT22;1666;48.898;9.182;2024-02-26T03:11:59;7.70;1.00
3308;DHT22;1666;48.898;9.182;2024-02-26T03:14:29;7.70;1.00
3308;DHT22;1666;48.898;9.182;2024-02-26T03:16:59;7.70;1.00
3308;DHT22;1666;48.898;9.182;2024-02-26T03:19:29;7.70;1.00
3308;DHT22;1666;48.898;9.182;2024-02-26T03:22:02;7.80;1.00
3308;DHT22;1666;48.898;9.182;2024-02-26T03:24:35;7.80;1.00
3308;DHT22;1666;48.898;9.182;2024-02-26T03:27:05;7.80;1.00
3308;DHT22;1666;48.898;9.182;2024-02-26T03:29:37;7.80;1.00
3308;DHT22;1666;48.898;9.182;2024-02-26T03:32:07;7.80;1.00
3308;DHT22;1666;48.898;9.182;2024-02-26T03:34:37;7.70;1.00
3308;DHT22;1666;48.898;9.182;2024-02-26T03:37:11;7.70;1.00
3308;DHT22;1666;48.898;9.182;2024-02-26T03:39:42;7.80;1.00
3308;DHT22;1666;48.898;9.182;2024-02-26T03:42:12;7.70;1.00
3308;DHT22;1666;48.898;9.182;2024-02-26T03:44:43;7.70;1.00
3308;DHT22;1666;48.898;9.182;2024-02-26T03:47:13;7.70;1.00
3308;DHT22;1666;48.898;9.182;2024-02-26T03:49:43;7.70;1.00
3308;DHT22;1666;48.898;9.182;2024-02-26T03:52:16;7.60;1.00
3308;DHT22;1666;48.898;9.182;2024-02-26T03:54:46;7.70;1.00
3308;DHT22;1666;48.898;9.182;2024-02-26T03:57:16;7.60;1.00
3308;DHT22;1666;48.898;9.182;2024-02-26T03:59:46;7.40;1.00
3308;DHT22;1666;48.898;9.182;2024-02-26T04:02:16;7.20;1.00
3308;DHT22;1666;48.898;9.182;2024-02-26T04:04:46;7.20;1.00
3308;DHT22;1666;48.898;9.182;2024-02-26T04:07:19;7.20;1.00
3308;DHT22;1666;48.898;9.182;2024-02-26T04:09:49;7.20;1.00
3308;DHT22;1666;48.898;9.182;2024-02-26T04:12:19;7.20;1.00
3308;DHT22;1666;48.898;9.182;2024-02-26T04:14:49;7.20;1.00
3308;DHT22;1666;48.898;9.182;2024-02-26T04:17:20;7.30;1.00
3308;DHT22;1666;48.898;9.182;2024-02-26T04:19:50;7.20;1.00
3308;DHT22;1666;48.898;9.182;2024-02-26T04:22:22;7.20;1.00
3308;DHT22;1666;48.898;9.182;2024-02-26T04:24:53;7.20;1.00
3308;DHT22;1666;48.898;9.182;2024-02-26T04:27:23;7.20;1.00
3308;DHT22;1666;48.898;9.182;2024-02-26T04:29:53;7.30;1.00
3308;DHT22;1666;48.898;9.182;2024-02-26T04:32:24;7.30;1.00
3308;DHT22;1666;48.898;9.182;2024-02-26T04:34:55;7.20;1.00
3308;DHT22;1666;48.898;9.182;2024-02-26T04:37:28;7.20;1.00
3308;DHT22;1666;48.898;9.182;2024-02-26T04:39:59;7.10;1.00
3308;DHT22;1666;48.898;9.182;2024-02-26T04:42:29;7.10;1.00
3308;DHT22;1666;48.898;9.182;2024-02-26T04:44:59;7.10;1.00
3308;DHT22;1666;48.898;9.182;2024-02-26T04:47:30;7.10;1.00
3308;DHT22;1666;48.898;9.182;2024-02-26T04:50:00;7.10;1.00
3308;DHT22;1666;48.898;9.182;2024-02-26T04:52:33;7.10;1.00
3308;DHT22;1666;48.898;9.182;2024-02-26T04:55:04;7.10;1.00
3308;DHT22;1666;48.898;9.182;2024-02-26T04:57:34;7.00;1.00
3308;DHT22;1666;48.898;9.182;2024-02-26T05:00:04;7.10;1.00
3308;DHT22;1666;48.898;9.182;2024-02-26T05:02:35;7.10;1.00
3308;DHT22;1666;48.898;9.182;2024-02-26T05:05:06;7.00;1.00
3308;DHT22;1666;48.898;9.182;2024-02-26T05:07:42;7.00;1.00
3308;DHT22;1666;48.898;9.182;2024-02-26T05:10:12;7.10;1.00
3308;DHT22;1666;48.898;9.182;2024-02-26T05:12:42;7.00;1.00
3308;DHT22;1666;48.898;9.182;2024-02-26T05:15:12;7.00;1.00
3308;DHT22;1666;48.898;9.182;2024-02-26T05:17:45;7.10;1.00
3308;DHT22;1666;48.898;9.182;2024-02-26T05:20:16;7.10;1.00
3308;DHT22;1666;48.898;9.182;2024-02-26T05:22:49;7.00;1.00
3308;DHT22;1666;48.898;9.182;2024-02-26T05:25:19;7.10;1.00
3308;DHT22;1666;48.898;9.182;2024-02-26T05:27:49;7.00;1.00
3308;DHT22;1666;48.898;9.182;2024-02-26T05:30:19;7.00;1.00
3308;DHT22;1666;48.898;9.182;2024-02-26T05:32:51;7.00;1.00
3308;DHT22;1666;48.898;9.182;2024-02-26T05:35:24;6.90;1.00
3308;DHT22;1666;48.898;9.182;2024-02-26T05:37:57;6.90;1.00
3308;DHT22;1666;48.898;9.182;2024-02-26T05:40:26;6.90;1.00
3308;DHT22;1666;48.898;9.182;2024-02-26T05:42:57;7.00;1.00
3308;DHT22;1666;48.898;9.182;2024-02-26T05:45:27;6.90;1.00
3308;DHT22;1666;48.898;9.182;2024-02-26T05:47:58;7.00;1.00
3308;DHT22;1666;48.898;9.182;2024-02-26T05:50:28;7.00;1.00
3308;DHT22;1666;48.898;9.182;2024-02-26T05:53:00;7.00;1.00
3308;DHT22;1666;48.898;9.182;2024-02-26T05:55:30;7.00;1.00
3308;DHT22;1666;48.898;9.182;2024-02-26T05:58:00;7.10;1.00
3308;DHT22;1666;48.898;9.182;2024-02-26T06:00:31;7.10;1.00
3308;DHT22;1666;48.898;9.182;2024-02-26T06:03:01;7.10;1.00
3308;DHT22;1666;48.898;9.182;2024-02-26T06:05:31;7.00;1.00
3308;DHT22;1666;48.898;9.182;2024-02-26T06:08:05;7.00;1.00
3308;DHT22;1666;48.898;9.182;2024-02-26T06:10:35;7.00;1.00
3308;DHT22;1666;48.898;9.182;2024-02-26T06:13:06;6.90;1.00
3308;DHT22;1666;48.898;9.182;2024-02-26T06:15:36;6.90;1.00
3308;DHT22;1666;48.898;9.182;2024-02-26T06:18:06;6.90;1.00
3308;DHT22;1666;48.898;9.182;2024-02-26T06:20:37;6.90;1.00
3308;DHT22;1666;48.898;9.182;2024-02-26T06:23:09;6.90;1.00
3308;DHT22;1666;48.898;9.182;2024-02-26T06:25:39;6.90;1.00
3308;DHT22;1666;48.898;9.182;2024-02-26T06:28:09;6.90;1.00
3308;DHT22;1666;48.898;9.182;2024-02-26T06:30:39;6.90;1.00
3308;DHT22;1666;48.898;9.182;2024-02-26T06:33:11;6.90;1.00
3308;DHT22;1666;48.898;9.182;2024-02-26T06:35:41;6.90;1.00
3308;DHT22;1666;48.898;9.182;2024-02-26T06:38:21;6.80;1.00
3308;DHT22;1666;48.898;9.182;2024-02-26T06:40:51;6.80;1.00
3308;DHT22;1666;48.898;9.182;2024-02-26T06:43:21;6.80;1.00
3308;DHT22;1666;48.898;9.182;2024-02-26T06:45:51;6.70;1.00
3308;DHT22;1666;48.898;9.182;2024-02-26T06:48:23;6.70;1.00
3308;DHT22;1666;48.898;9.182;2024-02-26T06:50:53;6.70;1.00
3308;DHT22;1666;48.898;9.182;2024-02-26T06:53:26;6.80;1.00
3308;DHT22;1666;48.898;9.182;2024-02-26T06:55:56;6.70;1.00
3308;DHT22;1666;48.898;9.182;2024-02-26T06:58:28;6.70;1.00
3308;DHT22;1666;48.898;9.182;2024-02-26T07:01:00;6.70;1.00
3308;DHT22;1666;48.898;9.182;2024-02-26T07:03:30;6.80;1.00
3308;DHT22;1666;48.898;9.182;2024-02-26T07:06:01;6.70;1.00
3308;DHT22;1666;48.898;9.182;2024-02-26T07:08:33;6.80;1.00
3308;DHT22;1666;48.898;9.182;2024-02-26T07:11:07;6.80;1.00
3308;DHT22;1666;48.898;9.182;2024-02-26T07:13:37;6.90;1.00
3308;DHT22;1666;48.898;9.182;2024-02-26T07:16:09;6.90;1.00
3308;DHT22;1666;48.898;9.182;2024-02-26T07:18:39;7.00;1.00
3308;DHT22;1666;48.898;9.182;2024-02-26T07:21:11;7.10;1.00
3308;DHT22;1666;48.898;9.182;2024-02-26T07:23:44;7.20;1.00
3308;DHT22;1666;48.898;9.182;2024-02-26T07:26:14;7.30;1.00
3308;DHT22;1666;48.898;9.182;2024-02-26T07:28:46;7.40;1.00
3308;DHT22;1666;48.898;9.182;2024-02-26T07:31:17;7.40;1.00
3308;DHT22;1666;48.898;9.182;2024-02-26T07:33:47;7.40;1.00
3308;DHT22;1666;48.898;9.182;2024-02-26T07:36:17;7.50;1.00
3308;DHT22;1666;48.898;9.182;2024-02-26T07:38:50;7.60;1.00
3308;DHT22;1666;48.898;9.182;2024-02-26T07:41:21;7.70;1.00
3308;DHT22;1666;48.898;9.182;2024-02-26T07:43:51;7.70;1.00
3308;DHT22;1666;48.898;9.182;2024-02-26T07:46:21;7.70;1.00
3308;DHT22;1666;48.898;9.182;2024-02-26T07:48:51;7.60;1.00
3308;DHT22;1666;48.898;9.182;2024-02-26T07:51:21;7.70;1.00
3308;DHT22;1666;48.898;9.182;2024-02-26T07:53:55;7.60;1.00
3308;DHT22;1666;48.898;9.182;2024-02-26T07:56:25;7.60;1.00
3308;DHT22;1666;48.898;9.182;2024-02-26T07:58:55;7.70;1.00
3308;DHT22;1666;48.898;9.182;2024-02-26T08:01:25;7.70;1.00
3308;DHT22;1666;48.898;9.182;2024-02-26T08:03:56;7.70;1.00
3308;DHT22;1666;48.898;9.182;2024-02-26T08:06:26;7.60;1.00
3308;DHT22;1666;48.898;9.182;2024-02-26T08:08:58;7.60;1.00
3308;DHT22;1666;48.898;9.182;2024-02-26T08:11:28;7.50;1.00
3308;DHT22;1666;48.898;9.182;2024-02-26T08:13:58;7.60;1.00
3308;DHT22;1666;48.898;9.182;2024-02-26T08:16:28;7.70;1.00
3308;DHT22;1666;48.898;9.182;2024-02-26T08:19:02;7.60;1.00
3308;DHT22;1666;48.898;9.182;2024-02-26T08:21:32;7.50;1.00
3308;DHT22;1666;48.898;9.182;2024-02-26T08:24:06;7.50;1.00
3308;DHT22;1666;48.898;9.182;2024-02-26T08:26:37;7.50;1.00
3308;DHT22;1666;48.898;9.182;2024-02-26T08:29:07;7.50;1.00
3308;DHT22;1666;48.898;9.182;2024-02-26T08:31:37;7.50;1.00
3308;DHT22;1666;48.898;9.182;2024-02-26T08:34:07;7.50;1.00
3308;DHT22;1666;48.898;9.182;2024-02-26T08:36:37;7.50;1.00
3308;DHT22;1666;48.898;9.182;2024-02-26T08:39:10;7.50;1.00
3308;DHT22;1666;48.898;9.182;2024-02-26T08:41:41;7.50;1.00
3308;DHT22;1666;48.898;9.182;2024-02-26T08:44:11;7.50;1.00
3308;DHT22;1666;48.898;9.182;2024-02-26T08:46:41;7.40;1.00
3308;DHT22;1666;48.898;9.182;2024-02-26T08:49:12;7.50;1.00
3308;DHT22;1666;48.898;9.182;2024-02-26T08:51:43;7.50;1.00
3308;DHT22;1666;48.898;9.182;2024-02-26T08:54:16;7.50;1.00
3308;DHT22;1666;48.898;9.182;2024-02-26T08:56:46;7.60;1.00
3308;DHT22;1666;48.898;9.182;2024-02-26T08:59:16;7.70;1.00
3308;DHT22;1666;48.898;9.182;2024-02-26T09:01:51;7.80;1.00
3308;DHT22;1666;48.898;9.182;2024-02-26T09:04:21;8.00;1.00
3308;DHT22;1666;48.898;9.182;2024-02-26T09:06:51;8.00;1.00
3308;DHT22;1666;48.898;9.182;2024-02-26T09:09:23;8.30;1.00
3308;DHT22;1666;48.898;9.182;2024-02-26T09:11:54;8.20;1.00
3308;DHT22;1666;48.898;9.182;2024-02-26T09:14:24;8.20;1.00
3308;DHT22;1666;48.898;9.182;2024-02-26T09:16:54;8.40;1.00
3308;DHT22;1666;48.898;9.182;2024-02-26T09:19:25;8.60;1.00
3308;DHT22;1666;48.898;9.182;2024-02-26T09:21:56;8.70;1.00
3308;DHT22;1666;48.898;9.182;2024-02-26T09:24:29;8.60;1.00
3308;DHT22;1666;48.898;9.182;2024-02-26T09:26:59;8.70;1.00
3308;DHT22;1666;48.898;9.182;2024-02-26T09:29:29;8.70;1.00
3308;DHT22;1666;48.898;9.182;2024-02-26T09:32:00;8.80;1.00
3308;DHT22;1666;48.898;9.182;2024-02-26T09:34:30;8.60;1.00
3308;DHT22;1666;48.898;9.182;2024-02-26T09:37:01;8.70;1.00
3308;DHT22;1666;48.898;9.182;2024-02-26T09:39:47;8.80;1.00
3308;DHT22;1666;48.898;9.182;2024-02-26T09:42:19;8.90;1.00
3308;DHT22;1666;48.898;9.182;2024-02-26T09:44:51;8.70;1.00
3308;DHT22;1666;48.898;9.182;2024-02-26T09:47:23;8.70;1.00
3308;DHT22;1666;48.898;9.182;2024-02-26T09:49:56;8.80;1.00
3308;DHT22;1666;48.898;9.182;2024-02-26T09:52:28;8.90;1.00
3308;DHT22;1666;48.898;9.182;2024-02-26T09:55:04;9.10;1.00
3308;DHT22;1666;48.898;9.182;2024-02-26T09:57:34;9.00;1.00
3308;DHT22;1666;48.898;9.182;2024-02-26T10:00:09;9.10;1.00
3308;DHT22;1666;48.898;9.182;2024-02-26T10:02:40;9.40;1.00
3308;DHT22;1666;48.898;9.182;2024-02-26T10:05:12;9.50;1.00
3308;DHT22;1666;48.898;9.182;2024-02-26T10:07:44;9.30;1.00
3308;DHT22;1666;48.898;9.182;2024-02-26T10:10:18;9.40;1.00
3308;DHT22;1666;48.898;9.182;2024-02-26T10:12:48;9.70;1.00
3308;DHT22;1666;48.898;9.182;2024-02-26T10:15:18;9.50;1.00
3308;DHT22;1666;48.898;9.182;2024-02-26T10:17:48;9.60;1.00
3308;DHT22;1666;48.898;9.182;2024-02-26T10:20:19;9.90;1.00
3308;DHT22;1666;48.898;9.182;2024-02-26T10:22:51;10.00;1.00
3308;DHT22;1666;48.898;9.182;2024-02-26T10:25:23;9.90;1.00
3308;DHT22;1666;48.898;9.182;2024-02-26T10:27:54;10.00;1.00
3308;DHT22;1666;48.898;9.182;2024-02-26T10:30:24;9.80;1.00
3308;DHT22;1666;48.898;9.182;2024-02-26T10:32:55;9.90;1.00
3308;DHT22;1666;48.898;9.182;2024-02-26T10:35:25;10.00;1.00
3308;DHT22;1666;48.898;9.182;2024-02-26T10:37:58;10.00;1.00
3308;DHT22;1666;48.898;9.182;2024-02-26T10:40:31;10.20;1.00
3308;DHT22;1666;48.898;9.182;2024-02-26T10:43:01;10.30;1.00
3308;DHT22;1666;48.898;9.182;2024-02-26T10:45:32;10.50;1.00
3308;DHT22;1666;48.898;9.182;2024-02-26T10:48:05;10.80;1.00
3308;DHT22;1666;48.898;9.182;2024-02-26T10:50:40;11.00;1.00
3308;DHT22;1666;48.898;9.182;2024-02-26T10:53:17;11.00;1.00
3308;DHT22;1666;48.898;9.182;2024-02-26T10:55:54;11.20;1.00
3308;DHT22;1666;48.898;9.182;2024-02-26T10:58:25;11.40;1.00
3308;DHT22;1666;48.898;9.182;2024-02-26T11:00:57;11.50;1.00
3308;DHT22;1666;48.898;9.182;2024-02-26T11:03:28;11.50;1.00
3308;DHT22;1666;48.898;9.182;2024-02-26T11:06:04;11.30;1.00
3308;DHT22;1666;48.898;9.182;2024-02-26T11:08:34;11.20;1.00
3308;DHT22;1666;48.898;9.182;2024-02-26T11:11:07;11.40;1.00
3308;DHT22;1666;48.898;9.182;2024-02-26T11:13:43;11.50;1.00
3308;DHT22;1666;48.898;9.182;2024-02-26T11:16:18;11.70;1.00
3308;DHT22;1666;48.898;9.182;2024-02-26T11:18:49;11.80;1.00
3308;DHT22;1666;48.898;9.182;2024-02-26T11:21:21;11.70;1.00
3308;DHT22;1666;48.898;9.182;2024-02-26T11:24:07;11.60;1.00
3308;DHT22;1666;48.898;9.182;2024-02-26T11:26:43;11.60;1.00
3308;DHT22;1666;48.898;9.182;2024-02-26T11:29:19;11.70;1.00
3308;DHT22;1666;48.898;9.182;2024-02-26T11:31:52;11.80;1.00
3308;DHT22;1666;48.898;9.182;2024-02-26T11:34:22;12.00;1.00
3308;DHT22;1666;48.898;9.182;2024-02-26T11:36:53;12.00;1.00
3308;DHT22;1666;48.898;9.182;2024-02-26T11:39:24;11.90;1.00
3308;DHT22;1666;48.898;9.182;2024-02-26T11:42:05;11.80;1.00
3308;DHT22;1666;48.898;9.182;2024-02-26T11:44:35;11.80;1.00
3308;DHT22;1666;48.898;9.182;2024-02-26T11:47:12;12.00;1.00
3308;DHT22;1666;48.898;9.182;2024-02-26T11:49:42;12.10;1.00
3308;DHT22;1666;48.898;9.182;2024-02-26T11:52:13;12.20;1.00
3308;DHT22;1666;48.898;9.182;2024-02-26T11:54:45;12.40;1.00
3308;DHT22;1666;48.898;9.182;2024-02-26T11:57:29;12.50;1.00
3308;DHT22;1666;48.898;9.182;2024-02-26T12:00:11;12.70;1.00
3308;DHT22;1666;48.898;9.182;2024-02-26T12:02:45;12.80;1.00
3308;DHT22;1666;48.898;9.182;2024-02-26T12:05:16;12.80;1.00
3308;DHT22;1666;48.898;9.182;2024-02-26T12:07:49;12.70;1.00
3308;DHT22;1666;48.898;9.182;2024-02-26T12:10:24;12.90;1.00
3308;DHT22;1666;48.898;9.182;2024-02-26T12:13:04;13.00;1.00
3308;DHT22;1666;48.898;9.182;2024-02-26T12:15:37;13.00;1.00
3308;DHT22;1666;48.898;9.182;2024-02-26T12:18:09;12.80;1.00
3308;DHT22;1666;48.898;9.182;2024-02-26T12:20:40;12.70;1.00
3308;DHT22;1666;48.898;9.182;2024-02-26T12:23:14;12.70;1.00
3308;DHT22;1666;48.898;9.182;2024-02-26T12:25:45;12.50;1.00
3308;DHT22;1666;48.898;9.182;2024-02-26T12:28:18;12.50;1.00
3308;DHT22;1666;48.898;9.182;2024-02-26T12:30:48;12.40;1.00
3308;DHT22;1666;48.898;9.182;2024-02-26T12:33:18;12.60;1.00
3308;DHT22;1666;48.898;9.182;2024-02-26T12:35:50;12.50;1.00
3308;DHT22;1666;48.898;9.182;2024-02-26T12:38:20;12.80;1.00
3308;DHT22;1666;48.898;9.182;2024-02-26T12:40:50;13.00;1.00
3308;DHT22;1666;48.898;9.182;2024-02-26T12:43:23;13.30;1.00
3308;DHT22;1666;48.898;9.182;2024-02-26T12:45:53;13.30;1.00
3308;DHT22;1666;48.898;9.182;2024-02-26T12:48:25;13.00;1.00
3308;DHT22;1666;48.898;9.182;2024-02-26T12:50:55;13.00;1.00
3308;DHT22;1666;48.898;9.182;2024-02-26T12:53:27;13.10;1.00
3308;DHT22;1666;48.898;9.182;2024-02-26T12:55:57;12.80;1.00
3308;DHT22;1666;48.898;9.182;2024-02-26T12:58:31;13.10;1.00
3308;DHT22;1666;48.898;9.182;2024-02-26T13:01:02;13.10;1.00
3308;DHT22;1666;48.898;9.182;2024-02-26T13:03:34;13.20;1.00
3308;DHT22;1666;48.898;9.182;2024-02-26T13:06:06;13.30;1.00
3308;DHT22;1666;48.898;9.182;2024-02-26T13:08:37;13.20;1.00
3308;DHT22;1666;48.898;9.182;2024-02-26T13:11:07;13.20;1.00
3308;DHT22;1666;48.898;9.182;2024-02-26T13:13:40;13.20;1.00
3308;DHT22;1666;48.898;9.182;2024-02-26T13:16:14;13.10;1.00
3308;DHT22;1666;48.898;9.182;2024-02-26T13:18:44;13.20;1.00
3308;DHT22;1666;48.898;9.182;2024-02-26T13:21:15;13.10;1.00
3308;DHT22;1666;48.898;9.182;2024-02-26T13:23:49;13.10;1.00
3308;DHT22;1666;48.898;9.182;2024-02-26T13:26:22;13.20;1.00
3308;DHT22;1666;48.898;9.182;2024-02-26T13:29:02;13.40;1.00
3308;DHT22;1666;48.898;9.182;2024-02-26T13:31:38;13.50;1.00
3308;DHT22;1666;48.898;9.182;2024-02-26T13:34:11;13.40;1.00
3308;DHT22;1666;48.898;9.182;2024-02-26T13:36:42;13.50;1.00
3308;DHT22;1666;48.898;9.182;2024-02-26T13:39:21;13.50;1.00
3308;DHT22;1666;48.898;9.182;2024-02-26T13:41:52;13.50;1.00
3308;DHT22;1666;48.898;9.182;2024-02-26T13:44:26;13.50;1.00
3308;DHT22;1666;48.898;9.182;2024-02-26T13:46:56;13.70;1.00
3308;DHT22;1666;48.898;9.182;2024-02-26T13:49:26;13.80;1.00
3308;DHT22;1666;48.898;9.182;2024-02-26T13:51:56;13.70;1.00
3308;DHT22;1666;48.898;9.182;2024-02-26T13:54:26;13.70;1.00
3308;DHT22;1666;48.898;9.182;2024-02-26T13:56:57;13.80;1.00
3308;DHT22;1666;48.898;9.182;2024-02-26T13:59:29;13.80;1.00
3308;DHT22;1666;48.898;9.182;2024-02-26T14:02:01;13.80;1.00
3308;DHT22;1666;48.898;9.182;2024-02-26T14:04:32;13.60;1.00
3308;DHT22;1666;48.898;9.182;2024-02-26T14:07:02;13.70;1.00
3308;DHT22;1666;48.898;9.182;2024-02-26T14:09:34;13.70;1.00
3308;DHT22;1666;48.898;9.182;2024-02-26T14:12:16;13.60;1.00
3308;DHT22;1666;48.898;9.182;2024-02-26T14:14:53;13.60;1.00
3308;DHT22;1666;48.898;9.182;2024-02-26T14:17:26;13.70;1.00
3308;DHT22;1666;48.898;9.182;2024-02-26T14:19:56;13.60;1.00
3308;DHT22;1666;48.898;9.182;2024-02-26T14:22:26;13.60;1.00
3308;DHT22;1666;48.898;9.182;2024-02-26T14:24:57;13.60;1.00
3308;DHT22;1666;48.898;9.182;2024-02-26T14:27:28;13.60;1.00
3308;DHT22;1666;48.898;9.182;2024-02-26T14:30:00;13.70;1.00
3308;DHT22;1666;48.898;9.182;2024-02-26T14:32:31;13.70;1.00
3308;DHT22;1666;48.898;9.182;2024-02-26T14:35:06;13.70;1.00
3308;DHT22;1666;48.898;9.182;2024-02-26T14:37:43;13.70;1.00
3308;DHT22;1666;48.898;9.182;2024-02-26T14:40:15;13.60;1.00
3308;DHT22;1666;48.898;9.182;2024-02-26T14:42:45;13.60;1.00
3308;DHT22;1666;48.898;9.182;2024-02-26T14:45:18;13.60;1.00
3308;DHT22;1666;48.898;9.182;2024-02-26T14:47:48;13.80;1.00
3308;DHT22;1666;48.898;9.182;2024-02-26T14:50:19;13.60;1.00
3308;DHT22;1666;48.898;9.182;2024-02-26T14:52:49;13.60;1.00
3308;DHT22;1666;48.898;9.182;2024-02-26T14:55:19;13.50;1.00
3308;DHT22;1666;48.898;9.182;2024-02-26T14:57:49;13.40;1.00
3308;DHT22;1666;48.898;9.182;2024-02-26T15:00:22;13.30;1.00
3308;DHT22;1666;48.898;9.182;2024-02-26T15:02:54;13.30;1.00
3308;DHT22;1666;48.898;9.182;2024-02-26T15:05:27;13.30;1.00
3308;DHT22;1666;48.898;9.182;2024-02-26T15:07:57;13.30;1.00
3308;DHT22;1666;48.898;9.182;2024-02-26T15:10:27;13.30;1.00
3308;DHT22;1666;48.898;9.182;2024-02-26T15:12:57;13.30;1.00
3308;DHT22;1666;48.898;9.182;2024-02-26T15:15:30;13.30;1.00
3308;DHT22;1666;48.898;9.182;2024-02-26T15:18:01;13.30;1.00
3308;DHT22;1666;48.898;9.182;2024-02-26T15:20:31;13.30;1.00
3308;DHT22;1666;48.898;9.182;2024-02-26T15:23:01;13.30;1.00
3308;DHT22;1666;48.898;9.182;2024-02-26T15:25:31;13.30;1.00
3308;DHT22;1666;48.898;9.182;2024-02-26T15:28:01;13.30;1.00
3308;DHT22;1666;48.898;9.182;2024-02-26T15:30:36;13.30;1.00
3308;DHT22;1666;48.898;9.182;2024-02-26T15:33:06;13.20;1.00
3308;DHT22;1666;48.898;9.182;2024-02-26T15:35:37;13.20;1.00
3308;DHT22;1666;48.898;9.182;2024-02-26T15:38:07;13.10;1.00
3308;DHT22;1666;48.898;9.182;2024-02-26T15:40:37;13.10;1.00
3308;DHT22;1666;48.898;9.182;2024-02-26T15:43:07;13.10;1.00
3308;DHT22;1666;48.898;9.182;2024-02-26T15:45:44;13.10;1.00
3308;DHT22;1666;48.898;9.182;2024-02-26T15:48:14;13.00;1.00
3308;DHT22;1666;48.898;9.182;2024-02-26T15:50:44;13.00;1.00
3308;DHT22;1666;48.898;9.182;2024-02-26T15:53:14;13.00;1.00
3308;DHT22;1666;48.898;9.182;2024-02-26T15:55:44;13.00;1.00
3308;DHT22;1666;48.898;9.182;2024-02-26T15:58:14;12.90;1.00
3308;DHT22;1666;48.898;9.182;2024-02-26T16:00:47;12.90;1.00
3308;DHT22;1666;48.898;9.182;2024-02-26T16:03:17;12.80;1.00
3308;DHT22;1666;48.898;9.182;2024-02-26T16:05:47;12.80;1.00
3308;DHT22;1666;48.898;9.182;2024-02-26T16:08:20;12.70;1.00
3308;DHT22;1666;48.898;9.182;2024-02-26T16:10:51;12.70;1.00
3308;DHT22;1666;48.898;9.182;2024-02-26T16:13:21;12.60;1.00
3308;DHT22;1666;48.898;9.182;2024-02-26T16:15:58;12.60;1.00
3308;DHT22;1666;48.898;9.182;2024-02-26T16:18:30;12.50;1.00
3308;DHT22;1666;48.898;9.182;2024-02-26T16:21:00;12.40;1.00
3308;DHT22;1666;48.898;9.182;2024-02-26T16:23:30;12.40;1.00
3308;DHT22;1666;48.898;9.182;2024-02-26T16:26:01;12.30;1.00
3308;DHT22;1666;48.898;9.182;2024-02-26T16:28:31;12.30;1.00
3308;DHT22;1666;48.898;9.182;2024-02-26T16:31:04;12.20;1.00
3308;DHT22;1666;48.898;9.182;2024-02-26T16:33:34;12.20;1.00
3308;DHT22;1666;48.898;9.182;2024-02-26T16:36:05;12.10;1.00
3308;DHT22;1666;48.898;9.182;2024-02-26T16:38:35;12.10;1.00
3308;DHT22;1666;48.898;9.182;2024-02-26T16:41:06;12.00;1.00
3308;DHT22;1666;48.898;9.182;2024-02-26T16:43:37;12.00;1.00
3308;DHT22;1666;48.898;9.182;2024-02-26T16:46:09;12.00;1.00
3308;DHT22;1666;48.898;9.182;2024-02-26T16:48:42;11.90;1.00
3308;DHT22;1666;48.898;9.182;2024-02-26T16:51:13;11.90;1.00
3308;DHT22;1666;48.898;9.182;2024-02-26T16:53:44;11.90;1.00
3308;DHT22;1666;48.898;9.182;2024-02-26T16:56:15;11.80;1.00